Главная страница
METAR-TAF:

METAR-TAF

Аэропорты :

Quakertown Airport

Quakertown, Пенсильвания, США

широта: 40-26-06N, долгота: 075-22-54W, высота над уровнем моря: 160 м

Текущие метеонаблюдения

Эта сводка был подготовлена 11 минут назад, в 19:35 UTC
Ветер 5 Узел от южный-юго-западный
Температура 17°C
Влажность 100%
Давление 1015 hPa
Видимость: 9.7 км
небольшая облачность на высоте 1100 фута
небольшая облачность на высоте 1800 фута
Отдельные облака на высоте 3700 фута
дымка

METAR: KUKT 151935Z AUTO 21005KT 6SM BR FEW011 FEW018 SCT037 17/17 A2997 RMK A01

Время: 15:46 (19:46 UTC)


TAF: отсутствует

Метеонаблюдения и прогнозы для более 4000 аэропортов (сводки METAR и TAF).

Имеющиеся станции представлены на карте желтыми и красными точками.

Чтобы увидеть название станции, наведите на нее мышь.

Затем щелкните, чтобы увидеть метеонаблюдения и метеопрогнозы.

Управление картой: чтобы увеличить масштаб, щелкните зеленые кнопки с черным крестиком; чтобы уменьшить масштаб, щелкните зеленую кнопку с тире; для просмотра соседних карт щелкайте зеленые стрелки.


METAR-TAF: